createdAt,value
2018-06-13T00:00:01.380Z,67.70
2018-06-13T00:02:29.708Z,67.30
2018-06-13T00:07:26.119Z,67.30
2018-06-13T00:09:54.494Z,67.30
2018-06-13T00:12:22.815Z,67.50
2018-06-13T00:17:19.227Z,67.60
2018-06-13T00:19:47.584Z,67.50
2018-06-13T00:22:15.916Z,67.70
2018-06-13T00:29:40.418Z,68.20
2018-06-13T00:32:08.752Z,68.50
2018-06-13T00:34:37.165Z,68.60
2018-06-13T00:37:05.532Z,68.70
2018-06-13T00:39:33.900Z,68.70
2018-06-13T00:42:02.680Z,68.70
2018-06-13T00:44:31.048Z,68.90
2018-06-13T00:46:59.385Z,68.80
2018-06-13T00:49:27.815Z,68.90
2018-06-13T00:51:56.183Z,69.20
2018-06-13T00:54:24.515Z,69.40
2018-06-13T00:56:52.872Z,69.50
2018-06-13T00:59:21.210Z,69.70
2018-06-13T01:06:46.316Z,69.80
2018-06-13T01:11:43.337Z,70.20
2018-06-13T01:14:11.693Z,70.30
2018-06-13T01:16:40.577Z,70.20
2018-06-13T01:19:09.170Z,70.20
2018-06-13T01:21:38.071Z,70.20
2018-06-13T01:24:06.427Z,70.10
2018-06-13T01:26:35.325Z,70.30
2018-06-13T01:31:32.332Z,70.30
2018-06-13T01:34:00.719Z,70.30
2018-06-13T01:36:29.595Z,70.50
2018-06-13T01:38:58.524Z,70.60
2018-06-13T01:41:27.419Z,71.60
2018-06-13T01:48:52.396Z,71.20
2018-06-13T01:51:20.740Z,71.10
2018-06-13T01:53:49.065Z,71.20
2018-06-13T01:56:17.412Z,71.10
2018-06-13T01:58:45.723Z,71.10
2018-06-13T02:01:14.072Z,71.10
2018-06-13T02:06:10.527Z,71.00
2018-06-13T02:13:35.008Z,70.70
2018-06-13T02:16:03.412Z,70.40
2018-06-13T02:18:31.729Z,70.30
2018-06-13T02:21:00.081Z,70.40
2018-06-13T02:28:24.568Z,70.80
2018-06-13T02:30:52.925Z,70.90
2018-06-13T02:33:21.243Z,71.80
2018-06-13T02:35:49.609Z,71.10
2018-06-13T02:38:17.930Z,71.20
2018-06-13T02:43:14.340Z,71.20
2018-06-13T02:45:42.672Z,71.10
2018-06-13T02:48:11.065Z,71.00
2018-06-13T02:50:39.399Z,71.00
2018-06-13T02:53:07.759Z,71.00
2018-06-13T02:55:36.091Z,70.90
2018-06-13T02:58:04.456Z,70.80
2018-06-13T03:00:32.793Z,70.90
2018-06-13T03:03:01.142Z,71.00
2018-06-13T03:05:29.459Z,71.10
2018-06-13T03:07:57.850Z,71.20
2018-06-13T03:10:26.164Z,71.30
2018-06-13T03:12:54.568Z,71.50
2018-06-13T03:15:22.892Z,71.60
2018-06-13T03:17:51.288Z,71.60
2018-06-13T03:22:47.797Z,71.60
2018-06-13T03:25:16.108Z,71.60
2018-06-13T03:27:44.472Z,71.60
2018-06-13T03:30:12.812Z,72.20
2018-06-13T03:32:41.167Z,71.50
2018-06-13T03:35:09.483Z,71.50
2018-06-13T03:37:37.860Z,71.30
2018-06-13T03:40:06.190Z,71.40
2018-06-13T03:47:30.684Z,71.40
2018-06-13T03:49:59.018Z,72.30
2018-06-13T03:52:27.371Z,71.30
2018-06-13T03:57:23.777Z,71.30
2018-06-13T03:59:52.087Z,71.40
2018-06-13T04:02:20.440Z,71.50
2018-06-13T04:04:48.764Z,71.60
2018-06-13T04:09:45.240Z,72.00
2018-06-13T04:12:13.591Z,72.10
2018-06-13T04:19:38.083Z,72.60
2018-06-13T04:22:06.432Z,72.70
2018-06-13T04:24:34.783Z,72.80
2018-06-13T04:27:03.112Z,73.10
2018-06-13T04:29:31.469Z,73.00
2018-06-13T04:31:59.800Z,73.10
2018-06-13T04:34:28.147Z,73.00
2018-06-13T04:36:56.469Z,74.00
2018-06-13T04:39:24.811Z,73.30
2018-06-13T04:41:53.121Z,73.20
2018-06-13T04:44:21.512Z,73.40
2018-06-13T04:46:49.832Z,73.60
2018-06-13T04:49:18.184Z,73.80
2018-06-13T04:51:46.517Z,73.70
2018-06-13T04:54:14.880Z,73.80
2018-06-13T04:56:43.195Z,73.70
2018-06-13T05:01:41.062Z,73.80
2018-06-13T05:04:09.857Z,73.80
2018-06-13T05:06:39.205Z,73.60
2018-06-13T05:09:08.387Z,73.70
2018-06-13T05:11:36.716Z,73.90
2018-06-13T05:14:05.100Z,74.00
2018-06-13T05:16:33.449Z,73.90
2018-06-13T05:19:01.812Z,73.60
2018-06-13T05:21:30.147Z,73.50
2018-06-13T05:23:58.492Z,73.90
2018-06-13T05:26:26.811Z,73.10
2018-06-13T05:28:55.160Z,72.80
2018-06-13T05:31:23.487Z,72.70
2018-06-13T05:36:20.231Z,72.70
2018-06-13T05:38:48.609Z,72.60
2018-06-13T05:43:45.110Z,72.40
2018-06-13T05:46:13.449Z,72.30
2018-06-13T05:51:09.863Z,72.20
2018-06-13T05:53:38.221Z,72.30
2018-06-13T05:56:06.567Z,72.10
2018-06-13T05:58:34.955Z,71.90
2018-06-13T06:01:03.281Z,71.90
2018-06-13T06:03:31.660Z,71.90
2018-06-13T06:05:59.988Z,71.80
2018-06-13T06:08:28.638Z,71.80
2018-06-13T06:10:56.996Z,71.90
2018-06-13T06:13:25.816Z,71.80
2018-06-13T06:15:54.163Z,71.70
2018-06-13T06:18:22.568Z,71.80
2018-06-13T06:20:50.931Z,71.70
2018-06-13T06:23:19.296Z,71.50
2018-06-13T06:25:47.666Z,71.40
2018-06-13T06:28:15.987Z,71.10
2018-06-13T06:30:44.352Z,71.10
2018-06-13T06:33:12.956Z,70.80
2018-06-13T06:35:41.318Z,71.10
2018-06-13T06:38:09.656Z,70.90
2018-06-13T06:40:38.035Z,70.80
2018-06-13T06:43:06.360Z,71.30
2018-06-13T06:45:34.731Z,70.80
2018-06-13T06:48:03.056Z,70.60
2018-06-13T06:50:31.447Z,70.30
2018-06-13T06:52:59.772Z,70.50
2018-06-13T06:55:28.168Z,70.30
2018-06-13T06:57:56.517Z,70.40
2018-06-13T07:00:24.876Z,70.40
2018-06-13T07:02:53.207Z,70.10
2018-06-13T07:05:21.566Z,70.10
2018-06-13T07:07:49.954Z,70.30
2018-06-13T07:10:18.361Z,70.20
2018-06-13T07:15:14.779Z,70.20
2018-06-13T07:17:43.103Z,70.00
2018-06-13T07:20:11.467Z,69.70
2018-06-13T07:25:07.883Z,69.60
2018-06-13T07:27:36.274Z,69.40
2018-06-13T07:30:04.701Z,69.50
2018-06-13T07:32:33.017Z,69.40
2018-06-13T07:35:01.375Z,69.60
2018-06-13T07:37:29.740Z,69.60
2018-06-13T07:39:58.101Z,69.40
2018-06-13T07:42:26.425Z,69.30
2018-06-13T07:44:54.785Z,69.00
2018-06-13T07:47:23.123Z,69.00
2018-06-13T07:49:51.478Z,69.20
2018-06-13T07:52:19.813Z,69.10
2018-06-13T07:54:48.196Z,69.10
2018-06-13T07:57:16.530Z,68.50
2018-06-13T07:59:44.906Z,69.20
2018-06-13T08:02:13.237Z,70.30
2018-06-13T08:04:41.587Z,71.00
2018-06-13T08:09:38.038Z,71.50
2018-06-13T08:14:34.465Z,72.50
2018-06-13T08:17:02.899Z,73.10
2018-06-13T08:19:31.236Z,73.10
2018-06-13T08:21:59.657Z,72.60
2018-06-13T08:24:28.068Z,72.40
2018-06-13T08:26:56.464Z,72.90
2018-06-13T08:29:24.775Z,72.70
2018-06-13T08:31:53.124Z,72.00
2018-06-13T08:34:21.443Z,71.70
2018-06-13T08:36:49.804Z,70.80
2018-06-13T08:39:18.138Z,70.10
2018-06-13T08:41:46.496Z,69.50
2018-06-13T08:44:14.818Z,69.00
2018-06-13T08:46:43.209Z,67.80
2018-06-13T08:49:11.525Z,67.20
2018-06-13T08:51:39.876Z,67.70
2018-06-13T08:54:08.257Z,67.10
2018-06-13T08:56:36.575Z,67.10
2018-06-13T08:59:04.975Z,67.50
2018-06-13T09:01:33.357Z,67.10
2018-06-13T09:04:01.706Z,67.00
2018-06-13T09:06:30.060Z,66.40
2018-06-13T09:11:26.518Z,65.40
2018-06-13T09:13:54.834Z,65.40
2018-06-13T09:16:23.200Z,65.60
2018-06-13T09:18:51.528Z,65.40
2018-06-13T09:21:19.935Z,64.90
2018-06-13T09:23:48.257Z,64.50
2018-06-13T09:26:16.624Z,62.90
2018-06-13T09:28:44.938Z,62.60
2018-06-13T09:31:13.345Z,62.70
2018-06-13T09:33:41.680Z,61.80
2018-06-13T09:36:10.069Z,62.20
2018-06-13T09:38:38.391Z,62.00
2018-06-13T09:41:06.759Z,61.60
2018-06-13T09:48:31.260Z,60.80
2018-06-13T09:50:59.617Z,60.60
2018-06-13T09:53:27.944Z,60.70
2018-06-13T09:55:56.342Z,61.20
2018-06-13T09:58:24.709Z,61.40
2018-06-13T10:00:58.463Z,61.50
2018-06-13T10:03:26.829Z,61.50
2018-06-13T10:05:55.144Z,61.90
2018-06-13T10:08:23.523Z,61.70
2018-06-13T10:10:51.856Z,61.90
2018-06-13T10:13:20.213Z,62.00
2018-06-13T10:15:48.563Z,62.50
2018-06-13T10:18:16.914Z,62.40
2018-06-13T10:20:45.256Z,62.10
2018-06-13T10:23:13.618Z,62.10
2018-06-13T10:25:42.559Z,61.80
2018-06-13T10:28:10.936Z,61.90
2018-06-13T10:30:39.260Z,61.80
2018-06-13T10:35:35.681Z,60.90
2018-06-13T10:38:04.148Z,60.80
2018-06-13T10:40:32.552Z,60.10
2018-06-13T10:43:00.922Z,60.20
2018-06-13T10:45:29.317Z,60.20
2018-06-13T10:47:57.729Z,60.20
2018-06-13T10:50:26.058Z,59.50
2018-06-13T10:52:54.438Z,59.30
2018-06-13T10:55:22.772Z,58.60
2018-06-13T10:57:51.144Z,59.00
2018-06-13T11:00:19.470Z,58.60
2018-06-13T11:02:47.881Z,58.60
2018-06-13T11:07:44.309Z,58.30
2018-06-13T11:10:12.676Z,58.90
2018-06-13T11:12:41.037Z,58.80
2018-06-13T11:15:09.364Z,58.20
2018-06-13T11:17:37.738Z,58.20
2018-06-13T11:20:06.076Z,58.60
2018-06-13T11:22:35.160Z,58.60
2018-06-13T11:25:03.515Z,59.00
2018-06-13T11:29:59.944Z,59.30
2018-06-13T11:32:28.304Z,59.10
2018-06-13T11:34:57.664Z,58.80
2018-06-13T11:37:26.968Z,58.50
2018-06-13T11:39:55.608Z,58.30
2018-06-13T11:42:23.976Z,57.70
2018-06-13T11:44:52.299Z,58.00
2018-06-13T11:47:20.655Z,58.30
2018-06-13T11:49:49.031Z,57.90
2018-06-13T11:52:17.441Z,58.30
2018-06-13T11:54:45.809Z,58.00
2018-06-13T11:57:14.139Z,58.00
2018-06-13T11:59:42.492Z,57.80
2018-06-13T12:02:10.821Z,57.80
2018-06-13T12:04:39.179Z,57.50
2018-06-13T12:07:07.616Z,57.70
2018-06-13T12:09:36.073Z,57.70
2018-06-13T12:12:04.468Z,58.10
2018-06-13T12:17:01.042Z,58.90
2018-06-13T12:19:29.407Z,58.60
2018-06-13T12:21:57.743Z,58.70
2018-06-13T12:24:26.215Z,58.50
2018-06-13T12:26:54.537Z,58.60
2018-06-13T12:31:50.964Z,57.90
2018-06-13T12:34:19.422Z,57.50
2018-06-13T12:39:15.837Z,56.30
2018-06-13T12:44:12.270Z,56.00
2018-06-13T12:49:08.779Z,55.20
2018-06-13T12:51:37.105Z,54.80
2018-06-13T12:56:35.751Z,55.00
2018-06-13T12:59:04.327Z,55.10
2018-06-13T13:01:32.633Z,54.60
2018-06-13T13:04:01.053Z,54.50
2018-06-13T13:09:01.048Z,54.30
2018-06-13T13:11:29.451Z,54.40
2018-06-13T13:13:58.473Z,54.40
2018-06-13T13:16:26.815Z,54.40
2018-06-13T13:18:55.691Z,53.80
2018-06-13T13:21:24.026Z,53.80
2018-06-13T13:23:52.384Z,54.70
2018-06-13T13:26:20.709Z,54.30
2018-06-13T13:28:49.068Z,53.90
2018-06-13T13:31:17.429Z,54.30
2018-06-13T13:36:13.902Z,54.40
2018-06-13T13:38:42.260Z,53.60
2018-06-13T13:46:07.164Z,53.80
2018-06-13T13:48:35.976Z,54.00
2018-06-13T13:56:00.460Z,53.60
2018-06-13T13:58:28.793Z,53.80
2018-06-13T14:00:57.408Z,54.00
2018-06-13T14:03:25.743Z,53.80
2018-06-13T14:05:54.109Z,53.70
2018-06-13T14:08:22.498Z,53.40
2018-06-13T14:13:18.922Z,53.80
2018-06-13T14:15:47.349Z,53.40
2018-06-13T14:18:15.696Z,53.50
2018-06-13T14:20:44.049Z,53.40
2018-06-13T14:23:12.399Z,53.20
2018-06-13T14:25:40.762Z,53.70
2018-06-13T14:28:09.109Z,54.00
2018-06-13T14:30:37.468Z,54.10
2018-06-13T14:33:05.801Z,54.60
2018-06-13T14:35:34.179Z,55.00
2018-06-13T14:38:02.520Z,54.80
2018-06-13T14:40:30.888Z,54.30
2018-06-13T14:42:59.297Z,54.30
2018-06-13T14:45:27.648Z,54.30
2018-06-13T14:47:55.997Z,54.80
2018-06-13T14:50:24.364Z,54.10
2018-06-13T14:52:52.738Z,53.80
2018-06-13T14:55:21.104Z,53.20
2018-06-13T14:57:49.432Z,52.70
2018-06-13T15:00:17.783Z,52.40
2018-06-13T15:02:46.780Z,52.50
2018-06-13T15:05:15.270Z,52.10
2018-06-13T15:07:43.651Z,51.60
2018-06-13T15:12:40.096Z,51.30
2018-06-13T15:15:08.453Z,51.90
2018-06-13T15:22:32.988Z,51.90
2018-06-13T15:25:01.360Z,52.30
2018-06-13T15:27:29.784Z,52.30
2018-06-13T15:29:58.173Z,52.10
2018-06-13T15:32:26.503Z,52.30
2018-06-13T15:34:54.875Z,51.90
2018-06-13T15:37:23.188Z,52.20
2018-06-13T15:39:51.573Z,52.10
2018-06-13T15:42:19.893Z,52.00
2018-06-13T15:44:48.258Z,51.10
2018-06-13T15:47:16.796Z,50.40
2018-06-13T15:49:45.126Z,49.40
2018-06-13T15:52:13.488Z,48.90
2018-06-13T15:54:41.838Z,48.50
2018-06-13T15:57:10.214Z,48.60
2018-06-13T15:59:38.548Z,48.10
2018-06-13T16:02:06.938Z,48.20
2018-06-13T16:07:03.407Z,47.10
2018-06-13T16:11:59.907Z,47.00
2018-06-13T16:14:28.304Z,47.40
2018-06-13T16:16:56.681Z,47.70
2018-06-13T16:19:25.018Z,47.70
2018-06-13T16:21:53.421Z,46.80
2018-06-13T16:24:21.760Z,46.70
2018-06-13T16:29:18.193Z,45.80
2018-06-13T16:31:46.586Z,45.90
2018-06-13T16:34:15.017Z,46.30
2018-06-13T16:36:43.378Z,46.80
2018-06-13T16:39:11.759Z,46.80
2018-06-13T16:41:40.134Z,47.00
2018-06-13T16:44:08.445Z,47.00
2018-06-13T16:46:36.807Z,47.40
2018-06-13T16:49:05.947Z,46.70
2018-06-13T16:54:14.679Z,46.40
2018-06-13T16:56:43.715Z,46.60
2018-06-13T16:59:12.051Z,46.60
2018-06-13T17:01:40.415Z,46.90
2018-06-13T17:04:08.842Z,46.40
2018-06-13T17:06:37.207Z,46.50
2018-06-13T17:11:34.838Z,45.80
2018-06-13T17:14:03.218Z,45.00
2018-06-13T17:16:31.584Z,44.80
2018-06-13T17:18:59.912Z,44.60
2018-06-13T17:21:28.259Z,45.10
2018-06-13T17:23:56.595Z,45.90
2018-06-13T17:26:24.980Z,45.60
2018-06-13T17:28:53.308Z,46.00
2018-06-13T17:31:21.670Z,45.50
2018-06-13T17:33:49.999Z,45.10
2018-06-13T17:36:18.331Z,45.10
2018-06-13T17:38:46.735Z,44.80
2018-06-13T17:41:15.057Z,45.10
2018-06-13T17:43:43.425Z,45.30
2018-06-13T17:46:11.752Z,45.80
2018-06-13T17:48:40.137Z,46.30
2018-06-13T17:51:08.480Z,46.40
2018-06-13T17:53:36.847Z,46.80
2018-06-13T17:56:05.215Z,46.70
2018-06-13T18:01:01.642Z,47.30
2018-06-13T18:03:29.999Z,47.10
2018-06-13T18:05:58.336Z,47.20
2018-06-13T18:08:29.256Z,46.90
2018-06-13T18:13:25.773Z,47.10
2018-06-13T18:15:54.115Z,47.30
2018-06-13T18:18:22.739Z,47.00
2018-06-13T18:20:51.069Z,47.50
2018-06-13T18:23:19.429Z,47.60
2018-06-13T18:28:15.877Z,47.40
2018-06-13T18:30:44.208Z,47.90
2018-06-13T18:33:12.831Z,47.80
2018-06-13T18:35:41.160Z,48.30
2018-06-13T18:38:09.521Z,48.00
2018-06-13T18:40:37.844Z,48.10
2018-06-13T18:43:06.217Z,48.30
2018-06-13T18:45:34.532Z,49.70
2018-06-13T18:48:02.893Z,48.90
2018-06-13T18:50:31.236Z,49.20
2018-06-13T18:52:59.718Z,49.40
2018-06-13T18:55:28.047Z,49.90
2018-06-13T18:57:56.416Z,50.00
2018-06-13T19:00:24.757Z,50.20
2018-06-13T19:02:53.128Z,50.30
2018-06-13T19:05:21.525Z,51.10
2018-06-13T19:07:49.913Z,51.30
2018-06-13T19:10:18.290Z,51.60
2018-06-13T19:12:46.654Z,51.40
2018-06-13T19:15:14.985Z,51.20
2018-06-13T19:17:43.352Z,51.20
2018-06-13T19:20:11.682Z,51.40
2018-06-13T19:22:40.020Z,51.80
2018-06-13T19:25:08.384Z,51.80
2018-06-13T19:27:36.727Z,52.70
2018-06-13T19:30:05.300Z,52.40
2018-06-13T19:32:33.645Z,52.10
2018-06-13T19:37:30.084Z,52.40
2018-06-13T19:39:58.484Z,52.50
2018-06-13T19:42:26.838Z,52.90
2018-06-13T19:44:55.253Z,52.70
2018-06-13T19:49:57.008Z,53.10
2018-06-13T19:57:31.301Z,53.50
2018-06-13T19:59:59.668Z,53.50
2018-06-13T20:02:32.232Z,53.70
2018-06-13T20:05:06.071Z,53.90
2018-06-13T20:07:34.435Z,54.30
2018-06-13T20:10:02.857Z,54.10
2018-06-13T20:12:43.439Z,54.20
2018-06-13T20:15:17.696Z,54.40
2018-06-13T20:17:51.295Z,54.60
2018-06-13T20:20:19.660Z,54.50
2018-06-13T20:25:22.207Z,54.70
2018-06-13T20:27:55.864Z,55.10
2018-06-13T20:30:29.688Z,55.30
2018-06-13T20:32:58.007Z,55.50
2018-06-13T20:35:26.363Z,55.60
2018-06-13T20:37:54.716Z,55.90
2018-06-13T20:40:23.084Z,56.00
2018-06-13T20:47:47.571Z,57.10
2018-06-13T20:50:15.941Z,57.20
2018-06-13T20:52:44.293Z,56.60
2018-06-13T20:55:12.662Z,56.80
2018-06-13T20:57:40.992Z,57.30
2018-06-13T21:00:09.370Z,56.90
2018-06-13T21:02:37.717Z,57.00
2018-06-13T21:05:06.153Z,57.30
2018-06-13T21:10:02.897Z,58.40
2018-06-13T21:12:31.269Z,57.90
2018-06-13T21:14:59.646Z,57.80
2018-06-13T21:17:28.004Z,57.70
2018-06-13T21:19:56.335Z,57.80
2018-06-13T21:24:52.793Z,58.00
2018-06-13T21:29:47.416Z,58.20
2018-06-13T21:32:15.976Z,58.50
2018-06-13T21:34:44.401Z,58.60
2018-06-13T21:37:12.761Z,59.00
2018-06-13T21:39:41.140Z,58.90
2018-06-13T21:42:09.539Z,59.20
2018-06-13T21:44:37.871Z,59.30
2018-06-13T21:47:06.224Z,59.40
2018-06-13T21:49:34.539Z,59.60
2018-06-13T21:52:02.905Z,59.80
2018-06-13T21:54:31.229Z,60.00
2018-06-13T21:56:59.588Z,60.00
2018-06-13T21:59:27.923Z,60.10
2018-06-13T22:01:56.291Z,60.70
2018-06-13T22:04:24.661Z,61.10
2018-06-13T22:06:53.020Z,61.20
2018-06-13T22:09:21.380Z,61.30
2018-06-13T22:14:24.156Z,61.50
2018-06-13T22:16:53.004Z,61.80
2018-06-13T22:19:22.248Z,62.10
2018-06-13T22:21:50.595Z,62.30
2018-06-13T22:24:18.924Z,62.30
2018-06-13T22:26:47.280Z,62.40
2018-06-13T22:29:15.620Z,62.70
2018-06-13T22:31:44.020Z,62.60
2018-06-13T22:34:12.451Z,62.70
2018-06-13T22:36:40.809Z,62.90
2018-06-13T22:39:11.027Z,63.10
2018-06-13T22:41:39.389Z,63.30
2018-06-13T22:44:07.713Z,64.10
2018-06-13T22:46:36.076Z,63.80
2018-06-13T22:49:04.432Z,63.90
2018-06-13T22:51:32.958Z,64.10
2018-06-13T22:54:01.291Z,64.40
2018-06-13T22:56:29.644Z,64.70
2018-06-13T22:58:58.020Z,64.60
2018-06-13T23:01:26.384Z,65.10
2018-06-13T23:03:54.790Z,65.20
2018-06-13T23:06:23.107Z,65.30
2018-06-13T23:11:19.560Z,65.40
2018-06-13T23:13:47.914Z,65.30
2018-06-13T23:16:16.271Z,65.70
2018-06-13T23:18:44.623Z,65.80
2018-06-13T23:21:12.940Z,66.00
2018-06-13T23:23:41.299Z,66.30
2018-06-13T23:26:09.635Z,66.40
2018-06-13T23:33:34.131Z,66.50
2018-06-13T23:36:02.456Z,66.50
2018-06-13T23:38:30.804Z,66.90
2018-06-13T23:40:59.132Z,66.70
2018-06-13T23:43:27.531Z,67.10
2018-06-13T23:45:55.856Z,67.40
2018-06-13T23:50:52.272Z,67.70
2018-06-13T23:53:20.627Z,67.90
2018-06-13T23:55:48.948Z,68.00
2018-06-13T23:58:17.308Z,67.90
